createdAt,value
2023-02-27T00:01:47.112Z,46.90
2023-02-27T00:04:15.798Z,42.90
2023-02-27T00:06:43.993Z,39.20
2023-02-27T00:09:12.686Z,60.90
2023-02-27T00:11:40.900Z,94.80
2023-02-27T00:14:09.706Z,53.70
2023-02-27T00:16:37.993Z,44.20
2023-02-27T00:19:10.047Z,40.60
2023-02-27T00:21:38.260Z,68.00
2023-02-27T00:24:11.107Z,65.50
2023-02-27T00:26:39.484Z,47.00
2023-02-27T00:29:08.173Z,46.40
2023-02-27T00:31:36.583Z,42.00
2023-02-27T00:34:04.852Z,44.10
2023-02-27T00:36:33.211Z,36.60
2023-02-27T00:39:01.784Z,37.00
2023-02-27T00:41:30.071Z,37.80
2023-02-27T00:44:01.734Z,37.40
2023-02-27T00:46:30.448Z,38.80
2023-02-27T00:49:00.663Z,33.30
2023-02-27T00:51:29.237Z,36.40
2023-02-27T00:53:57.703Z,37.70
2023-02-27T00:56:25.971Z,37.60
2023-02-27T00:58:54.290Z,37.20
2023-02-27T01:01:23.688Z,36.70
2023-02-27T01:03:52.445Z,40.00
2023-02-27T01:06:21.235Z,38.00
2023-02-27T01:08:49.408Z,36.50
2023-02-27T01:13:48.937Z,34.70
2023-02-27T01:16:18.359Z,31.40
2023-02-27T01:18:48.809Z,31.10
2023-02-27T01:21:17.965Z,30.90
2023-02-27T01:23:51.061Z,30.20
2023-02-27T01:26:20.831Z,31.50
2023-02-27T01:28:49.052Z,29.80
2023-02-27T01:31:17.216Z,33.50
2023-02-27T01:33:46.130Z,32.10
2023-02-27T01:36:14.794Z,31.70
2023-02-27T01:38:44.021Z,33.70
2023-02-27T01:41:13.315Z,35.50
2023-02-27T01:44:01.960Z,47.80
2023-02-27T01:46:32.585Z,49.10
2023-02-27T01:49:04.537Z,47.70
2023-02-27T01:51:40.349Z,43.20
2023-02-27T01:54:09.954Z,33.40
2023-02-27T01:56:38.063Z,30.60
2023-02-27T01:59:07.824Z,30.20
2023-02-27T02:01:36.643Z,29.00
2023-02-27T02:04:26.592Z,27.70
2023-02-27T02:07:01.542Z,30.90
2023-02-27T02:09:29.879Z,30.10
2023-02-27T02:11:58.171Z,30.50
2023-02-27T02:14:30.023Z,29.30
2023-02-27T02:17:31.268Z,30.20
2023-02-27T02:20:37.431Z,30.40
2023-02-27T02:23:22.954Z,32.80
2023-02-27T02:26:33.153Z,34.60
2023-02-27T02:29:15.005Z,36.00
2023-02-27T02:32:02.484Z,54.60
2023-02-27T02:34:41.224Z,52.80
2023-02-27T02:37:37.458Z,52.40
2023-02-27T02:40:07.147Z,40.10
2023-02-27T02:42:50.565Z,35.30
2023-02-27T02:45:53.323Z,44.90
2023-02-27T02:48:27.216Z,52.90
2023-02-27T02:51:05.020Z,50.90
2023-02-27T02:53:52.743Z,46.80
2023-02-27T02:56:50.168Z,43.70
2023-02-27T02:59:32.996Z,40.20
2023-02-27T03:02:10.442Z,38.00
2023-02-27T03:04:49.833Z,36.90
2023-02-27T03:07:31.783Z,35.20
2023-02-27T03:10:08.944Z,36.80
2023-02-27T03:12:40.285Z,35.80
2023-02-27T03:15:20.245Z,35.80
2023-02-27T03:18:01.594Z,37.60
2023-02-27T03:23:11.683Z,38.50
2023-02-27T03:25:46.493Z,42.90
2023-02-27T03:28:21.285Z,42.00
2023-02-27T03:31:10.015Z,44.20
2023-02-27T03:33:45.982Z,42.10
2023-02-27T03:36:27.834Z,42.50
2023-02-27T03:39:46.632Z,40.20
2023-02-27T03:42:36.688Z,42.30
2023-02-27T03:45:37.640Z,41.10
2023-02-27T03:48:07.022Z,39.60
2023-02-27T03:50:36.318Z,40.40
2023-02-27T03:53:06.731Z,37.50
2023-02-27T03:55:36.626Z,39.60
2023-02-27T03:58:04.695Z,38.00
2023-02-27T04:00:33.018Z,38.80
2023-02-27T04:03:03.095Z,35.80
2023-02-27T04:05:33.791Z,33.30
2023-02-27T04:08:09.382Z,33.60
2023-02-27T04:11:00.213Z,33.80
2023-02-27T04:13:40.278Z,33.90
2023-02-27T04:16:17.916Z,30.40
2023-02-27T04:19:05.048Z,28.70
2023-02-27T04:21:52.133Z,29.80
2023-02-27T04:24:39.437Z,27.30
2023-02-27T04:27:36.309Z,24.90
2023-02-27T04:30:28.609Z,22.10
2023-02-27T04:33:28.561Z,20.30
2023-02-27T04:36:27.953Z,20.00
2023-02-27T04:39:05.141Z,18.20
2023-02-27T04:41:39.808Z,19.40
2023-02-27T04:44:08.454Z,19.20
2023-02-27T04:46:37.595Z,19.20
2023-02-27T04:49:09.010Z,19.10
2023-02-27T04:51:40.609Z,18.20
2023-02-27T04:54:12.223Z,18.20
2023-02-27T04:56:44.773Z,18.90
2023-02-27T04:59:18.520Z,18.00
2023-02-27T05:02:09.092Z,19.60
2023-02-27T05:04:38.834Z,18.50
2023-02-27T05:07:09.701Z,19.80
2023-02-27T05:09:53.812Z,20.10
2023-02-27T05:12:52.908Z,18.80
2023-02-27T05:15:23.241Z,17.40
2023-02-27T05:17:57.695Z,18.80
2023-02-27T05:20:27.865Z,18.50
2023-02-27T05:23:14.676Z,18.50
2023-02-27T05:28:34.877Z,15.70
2023-02-27T05:31:14.273Z,17.40
2023-02-27T05:34:02.590Z,16.90
2023-02-27T05:36:37.074Z,17.90
2023-02-27T05:39:07.062Z,18.80
2023-02-27T05:41:51.098Z,20.60
2023-02-27T05:44:23.848Z,20.40
2023-02-27T05:47:13.119Z,22.90
2023-02-27T05:49:47.877Z,22.20
2023-02-27T05:52:17.945Z,20.90
2023-02-27T05:54:53.996Z,24.80
2023-02-27T05:57:25.798Z,24.80
2023-02-27T06:00:17.911Z,24.40
2023-02-27T06:02:46.333Z,24.00
2023-02-27T06:05:15.702Z,24.10
2023-02-27T06:07:44.376Z,26.60
2023-02-27T06:10:16.954Z,26.10
2023-02-27T06:12:46.872Z,28.40
2023-02-27T06:15:15.051Z,27.00
2023-02-27T06:17:43.425Z,24.70
2023-02-27T06:20:12.521Z,23.00
2023-02-27T06:22:40.704Z,21.80
2023-02-27T06:25:10.111Z,23.40
2023-02-27T06:27:38.781Z,23.00
2023-02-27T06:30:08.594Z,23.10
2023-02-27T06:32:36.739Z,22.80
2023-02-27T06:35:06.970Z,24.80
2023-02-27T06:37:37.639Z,29.20
2023-02-27T06:40:11.593Z,20.40
2023-02-27T06:42:41.648Z,29.60
2023-02-27T06:45:10.696Z,19.90
2023-02-27T06:47:41.791Z,20.30
2023-02-27T06:50:11.600Z,17.60
2023-02-27T06:52:42.159Z,17.80
2023-02-27T06:55:11.536Z,21.70
2023-02-27T06:57:39.614Z,24.20
2023-02-27T07:00:10.225Z,23.70
2023-02-27T07:02:39.672Z,26.40
2023-02-27T07:05:09.044Z,24.50
2023-02-27T07:07:38.760Z,23.50
2023-02-27T07:10:13.241Z,20.60
2023-02-27T07:12:41.763Z,20.10
2023-02-27T07:15:11.674Z,21.70
2023-02-27T07:17:41.156Z,22.30
2023-02-27T07:20:13.200Z,24.20
2023-02-27T07:22:42.852Z,24.40
2023-02-27T07:25:11.135Z,25.10
2023-02-27T07:27:39.635Z,20.30
2023-02-27T07:30:09.120Z,21.00
2023-02-27T07:32:39.036Z,22.60
2023-02-27T07:35:08.322Z,18.90
2023-02-27T07:45:35.652Z,20.90
2023-02-27T07:48:04.028Z,17.80
2023-02-27T07:50:32.200Z,20.00
2023-02-27T07:53:00.483Z,26.10
2023-02-27T07:55:28.966Z,17.00
2023-02-27T07:57:59.105Z,15.30
2023-02-27T08:00:28.917Z,16.40
2023-02-27T08:02:56.992Z,17.10
2023-02-27T08:05:25.171Z,16.20
2023-02-27T08:07:53.133Z,14.60
2023-02-27T08:10:21.515Z,13.70
2023-02-27T08:12:49.673Z,13.10
2023-02-27T08:15:17.911Z,10.80
2023-02-27T08:17:47.047Z,11.10
2023-02-27T08:20:15.252Z,11.30
2023-02-27T08:22:43.606Z,10.50
2023-02-27T08:25:12.797Z,11.20
2023-02-27T08:27:41.042Z,10.70
2023-02-27T08:30:10.581Z,10.40
2023-02-27T08:32:39.570Z,9.30
2023-02-27T08:35:09.280Z,10.70
2023-02-27T08:37:37.797Z,10.60
2023-02-27T08:40:07.445Z,10.00
2023-02-27T08:42:37.495Z,11.50
2023-02-27T08:45:09.374Z,12.00
2023-02-27T08:47:37.980Z,46.10
2023-02-27T08:50:06.944Z,14.90
2023-02-27T08:52:35.620Z,17.70
2023-02-27T08:55:04.286Z,14.00
2023-02-27T08:57:32.368Z,13.70
2023-02-27T09:00:00.629Z,15.20
2023-02-27T09:02:29.043Z,13.70
2023-02-27T09:04:57.468Z,12.40
2023-02-27T09:07:25.689Z,18.70
2023-02-27T09:09:54.285Z,13.80
2023-02-27T09:12:27.375Z,20.90
2023-02-27T09:14:55.441Z,19.70
2023-02-27T09:17:29.271Z,21.10
2023-02-27T09:19:58.332Z,36.70
2023-02-27T09:22:26.717Z,15.20
2023-02-27T09:24:54.995Z,28.70
2023-02-27T09:27:24.133Z,23.90
2023-02-27T09:29:56.598Z,13.60
2023-02-27T09:32:25.653Z,12.60
2023-02-27T09:34:53.916Z,12.00
2023-02-27T09:37:24.985Z,11.50
2023-02-27T09:39:53.586Z,12.40
2023-02-27T09:42:27.488Z,14.20
2023-02-27T09:45:04.094Z,11.50
2023-02-27T09:47:43.237Z,10.70
2023-02-27T09:50:32.814Z,10.60
2023-02-27T09:53:03.542Z,11.40
2023-02-27T09:55:35.059Z,10.30
2023-02-27T09:58:26.311Z,10.90
2023-02-27T10:04:00.286Z,11.70
2023-02-27T10:06:44.367Z,13.40
2023-02-27T10:09:34.603Z,12.30
2023-02-27T10:12:10.197Z,12.00
2023-02-27T10:14:42.692Z,10.70
2023-02-27T10:17:25.808Z,9.60
2023-02-27T10:19:54.351Z,9.70
2023-02-27T10:22:26.830Z,12.50
2023-02-27T10:33:12.197Z,17.20
2023-02-27T10:35:41.499Z,16.50
2023-02-27T10:38:15.123Z,13.50
2023-02-27T10:40:42.133Z,14.10
2023-02-27T10:43:10.210Z,14.60
2023-02-27T10:45:38.876Z,12.30
2023-02-27T10:48:05.938Z,13.90
2023-02-27T10:50:35.314Z,15.10
2023-02-27T10:53:03.412Z,13.60
2023-02-27T10:55:32.545Z,14.80
2023-02-27T10:57:59.689Z,16.30
2023-02-27T11:00:47.465Z,16.40
2023-02-27T11:03:24.384Z,14.70
2023-02-27T11:05:58.993Z,14.00
2023-02-27T11:08:27.806Z,14.90
2023-02-27T11:11:11.228Z,16.20
2023-02-27T11:13:41.403Z,14.50
2023-02-27T11:16:21.774Z,18.50
2023-02-27T11:18:49.654Z,17.80
2023-02-27T11:21:28.641Z,16.60
2023-02-27T11:23:59.808Z,13.60
2023-02-27T11:26:27.041Z,13.60
2023-02-27T11:29:11.031Z,14.00
2023-02-27T11:31:38.256Z,14.00
2023-02-27T11:34:05.124Z,14.50
2023-02-27T11:36:44.852Z,15.60
2023-02-27T11:39:34.987Z,16.50
2023-02-27T11:42:11.760Z,20.30
2023-02-27T11:44:50.775Z,16.00
2023-02-27T11:47:24.321Z,16.40
2023-02-27T11:50:01.459Z,14.80
2023-02-27T11:52:50.199Z,14.60
2023-02-27T11:55:19.741Z,15.30
2023-02-27T11:57:49.844Z,16.90
2023-02-27T12:00:32.436Z,16.20
2023-02-27T12:03:26.404Z,15.40
2023-02-27T12:05:59.270Z,16.60
2023-02-27T12:08:46.729Z,16.50
2023-02-27T12:11:40.521Z,16.70
2023-02-27T12:14:22.447Z,17.40
2023-02-27T12:16:53.664Z,17.20
2023-02-27T12:19:21.835Z,18.00
2023-02-27T12:21:53.841Z,17.20
2023-02-27T12:24:43.763Z,18.30
2023-02-27T12:27:30.757Z,19.10
2023-02-27T12:30:05.321Z,25.50
2023-02-27T12:32:42.591Z,22.00
2023-02-27T12:35:29.353Z,18.60
2023-02-27T12:37:56.697Z,15.90
2023-02-27T12:40:31.269Z,16.70
2023-02-27T12:43:22.050Z,17.00
2023-02-27T12:45:56.872Z,19.30
2023-02-27T12:49:02.427Z,18.40
2023-02-27T12:51:42.335Z,17.80
2023-02-27T12:54:22.295Z,17.90
2023-02-27T12:57:04.842Z,17.70
2023-02-27T12:59:47.301Z,17.70
2023-02-27T13:02:58.924Z,17.00
2023-02-27T13:08:39.186Z,18.10
2023-02-27T13:13:47.531Z,17.90
2023-02-27T13:16:26.328Z,17.10
2023-02-27T13:19:19.399Z,18.50
2023-02-27T13:22:05.595Z,18.60
2023-02-27T13:24:33.808Z,20.90
2023-02-27T13:27:15.514Z,22.20
2023-02-27T13:29:46.944Z,20.70
2023-02-27T13:32:42.644Z,18.80
2023-02-27T13:35:27.350Z,18.70
2023-02-27T13:38:05.365Z,18.10
2023-02-27T13:40:34.392Z,21.70
2023-02-27T13:43:25.370Z,21.00
2023-02-27T13:45:57.570Z,23.40
2023-02-27T13:48:33.800Z,24.00
2023-02-27T13:51:00.671Z,23.50
2023-02-27T13:53:27.861Z,22.10
2023-02-27T13:56:18.223Z,22.50
2023-02-27T13:58:45.988Z,22.70
2023-02-27T14:01:26.849Z,22.50
2023-02-27T14:03:59.035Z,23.80
2023-02-27T14:06:25.813Z,25.40
2023-02-27T14:09:08.771Z,27.70
2023-02-27T14:11:41.779Z,23.80
2023-02-27T14:14:36.075Z,26.00
2023-02-27T14:17:05.985Z,23.70
2023-02-27T14:19:47.505Z,24.20
2023-02-27T14:25:00.982Z,23.80
2023-02-27T14:27:31.746Z,24.90
2023-02-27T14:30:01.714Z,26.70
2023-02-27T14:32:33.760Z,25.70
2023-02-27T14:35:00.694Z,28.70
2023-02-27T14:37:27.258Z,28.50
2023-02-27T14:39:54.533Z,28.20
2023-02-27T14:42:33.711Z,29.80
2023-02-27T14:45:00.815Z,27.60
2023-02-27T14:47:32.014Z,22.10
2023-02-27T14:49:58.788Z,26.50
2023-02-27T14:52:27.757Z,24.40
2023-02-27T14:55:18.225Z,21.50
2023-02-27T14:57:57.531Z,23.50
2023-02-27T15:00:50.017Z,21.00
2023-02-27T15:03:20.464Z,22.90
2023-02-27T15:05:48.722Z,22.90
2023-02-27T15:08:27.853Z,27.10
2023-02-27T15:10:55.238Z,23.60
2023-02-27T15:13:31.909Z,23.10
2023-02-27T15:16:25.459Z,35.60
2023-02-27T15:18:54.172Z,33.70
2023-02-27T15:21:22.615Z,27.70
2023-02-27T15:24:01.228Z,23.70
2023-02-27T15:26:37.203Z,30.10
2023-02-27T15:29:05.072Z,29.30
2023-02-27T15:31:32.209Z,28.00
2023-02-27T15:34:00.221Z,27.40
2023-02-27T15:36:34.511Z,26.30
2023-02-27T15:39:07.800Z,25.70
2023-02-27T15:41:35.697Z,27.10
2023-02-27T15:44:03.075Z,32.60
2023-02-27T15:46:32.491Z,30.20
2023-02-27T15:48:59.209Z,30.60
2023-02-27T15:51:26.456Z,28.30
2023-02-27T15:53:54.506Z,29.20
2023-02-27T15:56:26.102Z,25.20
2023-02-27T15:58:58.334Z,26.10
2023-02-27T16:01:34.579Z,30.60
2023-02-27T16:04:04.621Z,29.30
2023-02-27T16:06:37.713Z,36.30
2023-02-27T16:09:06.637Z,25.90
2023-02-27T16:11:38.156Z,26.30
2023-02-27T16:14:05.582Z,30.80
2023-02-27T16:16:36.949Z,26.00
2023-02-27T16:19:20.371Z,27.40
2023-02-27T16:22:17.009Z,26.30
2023-02-27T16:24:44.152Z,29.20
2023-02-27T16:27:29.360Z,27.40
2023-02-27T16:30:01.986Z,25.90
2023-02-27T16:32:40.978Z,28.10
2023-02-27T16:35:16.193Z,24.30
2023-02-27T16:37:44.562Z,27.30
2023-02-27T16:40:12.711Z,27.00
2023-02-27T16:42:40.190Z,25.90
2023-02-27T16:45:10.568Z,24.10
2023-02-27T16:47:37.500Z,27.10
2023-02-27T16:50:13.624Z,30.00
2023-02-27T16:52:42.484Z,24.50
2023-02-27T16:55:11.414Z,24.80
2023-02-27T16:57:39.884Z,25.40
2023-02-27T17:07:42.844Z,24.10
2023-02-27T17:10:16.638Z,32.40
2023-02-27T17:12:48.199Z,26.40
2023-02-27T17:15:16.676Z,24.70
2023-02-27T17:17:45.022Z,25.20
2023-02-27T17:20:13.877Z,23.30
2023-02-27T17:22:46.310Z,22.90
2023-02-27T17:25:14.439Z,21.40
2023-02-27T17:27:43.640Z,21.30
2023-02-27T17:30:12.360Z,20.60
2023-02-27T17:32:40.395Z,20.60
2023-02-27T17:35:09.068Z,20.50
2023-02-27T17:37:38.499Z,20.10
2023-02-27T17:40:08.318Z,21.50
2023-02-27T17:42:37.303Z,20.30
2023-02-27T17:45:06.569Z,24.50
2023-02-27T17:47:35.564Z,20.40
2023-02-27T17:50:05.364Z,23.10
2023-02-27T17:52:37.183Z,26.70
2023-02-27T17:55:06.311Z,36.20
2023-02-27T17:57:36.069Z,28.70
2023-02-27T18:00:06.403Z,25.80
2023-02-27T18:02:37.421Z,23.00
2023-02-27T18:05:06.706Z,75.10
2023-02-27T18:07:35.011Z,37.80
2023-02-27T18:10:05.695Z,26.00
2023-02-27T18:12:34.439Z,21.90
2023-02-27T18:15:07.224Z,19.20
2023-02-27T18:17:36.724Z,19.50
2023-02-27T18:20:05.586Z,18.70
2023-02-27T18:22:34.389Z,19.30
2023-02-27T18:25:02.960Z,19.90
2023-02-27T18:27:32.960Z,20.70
2023-02-27T18:30:02.939Z,20.00
2023-02-27T18:32:34.088Z,18.50
2023-02-27T18:35:02.288Z,21.00
2023-02-27T18:37:30.979Z,19.80
2023-02-27T18:39:59.113Z,20.70
2023-02-27T18:42:31.533Z,20.50
2023-02-27T18:45:00.053Z,19.20
2023-02-27T18:47:30.282Z,20.30
2023-02-27T18:49:58.808Z,19.00
2023-02-27T18:52:28.992Z,21.00
2023-02-27T18:54:57.537Z,19.90
2023-02-27T18:57:31.549Z,19.60
2023-02-27T18:59:59.865Z,18.40
2023-02-27T19:02:28.465Z,20.30
2023-02-27T19:04:56.769Z,19.50
2023-02-27T19:07:25.670Z,19.30
2023-02-27T19:09:57.216Z,20.20
2023-02-27T19:12:25.529Z,20.30
2023-02-27T19:14:57.263Z,22.20
2023-02-27T19:17:25.943Z,21.60
2023-02-27T19:19:54.315Z,21.60
2023-02-27T19:22:22.802Z,20.60
2023-02-27T19:24:51.022Z,22.30
2023-02-27T19:27:19.001Z,21.20
2023-02-27T19:29:46.996Z,22.10
2023-02-27T19:32:15.537Z,22.80
2023-02-27T19:34:43.514Z,21.90
2023-02-27T19:37:11.889Z,24.10
2023-02-27T19:39:40.145Z,23.30
2023-02-27T19:42:08.136Z,26.80
2023-02-27T19:44:36.193Z,23.40
2023-02-27T19:47:04.540Z,23.70
2023-02-27T19:49:32.977Z,25.00
2023-02-27T19:52:01.071Z,26.10
2023-02-27T19:54:30.090Z,26.10
2023-02-27T19:56:58.316Z,26.30
2023-02-27T19:59:27.324Z,25.70
2023-02-27T20:01:55.476Z,23.70
2023-02-27T20:04:23.746Z,26.90
2023-02-27T20:06:53.812Z,24.50
2023-02-27T20:09:23.337Z,21.00
2023-02-27T20:11:54.004Z,22.30
2023-02-27T20:14:25.135Z,20.10
2023-02-27T20:16:54.280Z,20.10
2023-02-27T20:19:22.819Z,20.10
2023-02-27T20:21:52.395Z,20.40
2023-02-27T20:24:22.270Z,20.80
2023-02-27T20:26:59.108Z,20.30
2023-02-27T20:29:27.959Z,20.50
2023-02-27T20:31:57.394Z,18.70
2023-02-27T20:34:26.800Z,16.60
2023-02-27T20:36:55.491Z,18.60
2023-02-27T20:39:23.893Z,19.80
2023-02-27T20:41:52.251Z,19.70
2023-02-27T20:44:20.855Z,17.70
2023-02-27T20:46:49.557Z,19.40
2023-02-27T20:49:19.534Z,20.50
2023-02-27T20:51:48.318Z,17.90
2023-02-27T20:54:20.632Z,18.10
2023-02-27T20:56:54.753Z,18.60
2023-02-27T20:59:24.854Z,17.10
2023-02-27T21:01:53.387Z,16.50
2023-02-27T21:04:45.985Z,17.10
2023-02-27T21:07:17.122Z,17.10
2023-02-27T21:09:45.874Z,17.80
2023-02-27T21:12:14.124Z,17.20
2023-02-27T21:14:45.441Z,17.80
2023-02-27T21:17:13.925Z,18.60
2023-02-27T21:19:44.436Z,18.20
2023-02-27T21:22:14.381Z,16.40
2023-02-27T21:24:42.668Z,16.70
2023-02-27T21:27:10.739Z,16.30
2023-02-27T21:29:39.226Z,16.50
2023-02-27T21:32:07.809Z,17.90
2023-02-27T21:34:36.129Z,16.80
2023-02-27T21:37:06.555Z,17.60
2023-02-27T21:42:18.780Z,16.50
2023-02-27T21:44:47.159Z,16.60
2023-02-27T21:47:17.186Z,17.00
2023-02-27T21:49:45.346Z,17.30
2023-02-27T21:52:13.424Z,18.30
2023-02-27T21:54:41.726Z,17.90
2023-02-27T21:57:10.118Z,16.70
2023-02-27T21:59:38.990Z,17.80
2023-02-27T22:02:07.332Z,16.90
2023-02-27T22:04:36.000Z,17.00
2023-02-27T22:07:04.144Z,16.70
2023-02-27T22:09:32.725Z,16.10
2023-02-27T22:12:02.432Z,17.30
2023-02-27T22:14:30.756Z,16.30
2023-02-27T22:16:59.317Z,14.80
2023-02-27T22:19:27.558Z,15.20
2023-02-27T22:21:55.675Z,16.20
2023-02-27T22:24:23.992Z,14.80
2023-02-27T22:26:52.262Z,14.30
2023-02-27T22:29:20.499Z,14.20
2023-02-27T22:31:48.836Z,14.60
2023-02-27T22:34:18.779Z,15.30
2023-02-27T22:36:48.698Z,15.20
2023-02-27T22:39:18.143Z,13.80
2023-02-27T22:41:46.299Z,14.80
2023-02-27T22:44:15.010Z,13.70
2023-02-27T22:46:45.251Z,14.20
2023-02-27T22:49:20.832Z,16.70
2023-02-27T22:51:51.188Z,18.30
2023-02-27T22:54:21.338Z,14.00
2023-02-27T22:56:51.003Z,14.10
2023-02-27T22:59:28.261Z,15.80
2023-02-27T23:01:56.506Z,13.60
2023-02-27T23:04:24.472Z,17.00
2023-02-27T23:06:56.717Z,16.80
2023-02-27T23:09:26.134Z,12.80
2023-02-27T23:11:55.132Z,13.80
2023-02-27T23:14:23.927Z,13.80
2023-02-27T23:16:51.982Z,13.90
2023-02-27T23:19:21.424Z,13.40
2023-02-27T23:21:54.781Z,13.70
2023-02-27T23:24:22.971Z,12.50
2023-02-27T23:26:52.114Z,12.60
2023-02-27T23:29:20.285Z,12.60
2023-02-27T23:31:49.185Z,13.00
2023-02-27T23:34:18.286Z,13.00
2023-02-27T23:36:46.580Z,13.70
2023-02-27T23:39:15.011Z,12.60
2023-02-27T23:41:43.565Z,11.80
2023-02-27T23:44:11.610Z,12.40
2023-02-27T23:46:40.766Z,12.60
2023-02-27T23:49:08.958Z,12.30
2023-02-27T23:51:37.302Z,12.00
2023-02-27T23:54:05.630Z,12.60
2023-02-27T23:56:34.994Z,11.60
2023-02-27T23:59:04.943Z,11.30
